sensor_id;sensor_type;location;lat;lon;timestamp;pressure;altitude;pressure_sealevel;temperature;humidity
7335;BME280;3708;42.632;23.378;2023-03-26T00:00:48;93842.59;;;11.86;55.66
7335;BME280;3708;42.632;23.378;2023-03-26T00:03:18;93839.16;;;11.30;57.74
7335;BME280;3708;42.632;23.378;2023-03-26T00:05:47;93836.75;;;11.25;57.72
7335;BME280;3708;42.632;23.378;2023-03-26T00:08:15;93838.13;;;11.46;57.27
7335;BME280;3708;42.632;23.378;2023-03-26T00:10:42;93851.06;;;11.27;57.65
7335;BME280;3708;42.632;23.378;2023-03-26T00:13:10;93848.50;;;11.43;57.71
7335;BME280;3708;42.632;23.378;2023-03-26T00:15:37;93847.47;;;11.60;57.20
7335;BME280;3708;42.632;23.378;2023-03-26T00:18:06;93852.94;;;11.55;56.86
7335;BME280;3708;42.632;23.378;2023-03-26T00:20:33;93843.09;;;11.51;57.21
7335;BME280;3708;42.632;23.378;2023-03-26T00:23:04;93833.84;;;11.02;59.03
7335;BME280;3708;42.632;23.378;2023-03-26T00:25:32;93818.94;;;11.30;58.52
7335;BME280;3708;42.632;23.378;2023-03-26T00:28:00;93824.00;;;11.23;58.72
7335;BME280;3708;42.632;23.378;2023-03-26T00:30:28;93804.81;;;11.35;57.96
7335;BME280;3708;42.632;23.378;2023-03-26T00:32:55;93813.16;;;11.25;58.41
7335;BME280;3708;42.632;23.378;2023-03-26T00:35:24;93798.44;;;11.20;58.46
7335;BME280;3708;42.632;23.378;2023-03-26T00:37:54;93808.56;;;10.82;59.59
7335;BME280;3708;42.632;23.378;2023-03-26T00:40:22;93788.25;;;10.79;59.20
7335;BME280;3708;42.632;23.378;2023-03-26T00:42:49;93777.16;;;10.58;59.53
7335;BME280;3708;42.632;23.378;2023-03-26T00:45:16;93781.25;;;10.83;59.02
7335;BME280;3708;42.632;23.378;2023-03-26T00:47:45;93771.44;;;11.47;57.13
7335;BME280;3708;42.632;23.378;2023-03-26T00:50:12;93777.66;;;11.27;57.02
7335;BME280;3708;42.632;23.378;2023-03-26T00:52:42;93771.75;;;11.86;55.60
7335;BME280;3708;42.632;23.378;2023-03-26T00:55:10;93771.03;;;11.89;55.10
7335;BME280;3708;42.632;23.378;2023-03-26T00:57:40;93782.84;;;11.67;55.21
7335;BME280;3708;42.632;23.378;2023-03-26T01:00:10;93776.28;;;11.89;54.60
7335;BME280;3708;42.632;23.378;2023-03-26T01:02:38;93779.00;;;11.49;55.78
7335;BME280;3708;42.632;23.378;2023-03-26T01:05:37;93777.56;;;11.79;55.10
7335;BME280;3708;42.632;23.378;2023-03-26T01:08:20;93773.91;;;11.40;55.82
7335;BME280;3708;42.632;23.378;2023-03-26T01:10:48;93777.94;;;11.66;54.80
7335;BME280;3708;42.632;23.378;2023-03-26T01:13:18;93779.16;;;11.68;54.13
7335;BME280;3708;42.632;23.378;2023-03-26T01:15:46;93777.97;;;11.97;53.24
7335;BME280;3708;42.632;23.378;2023-03-26T01:18:17;93791.84;;;11.38;54.54
7335;BME280;3708;42.632;23.378;2023-03-26T01:20:47;93803.97;;;11.59;54.20
7335;BME280;3708;42.632;23.378;2023-03-26T01:23:25;93799.50;;;11.31;55.40
7335;BME280;3708;42.632;23.378;2023-03-26T01:26:02;93790.34;;;11.25;55.67
7335;BME280;3708;42.632;23.378;2023-03-26T01:28:37;93793.38;;;11.55;54.88
7335;BME280;3708;42.632;23.378;2023-03-26T01:31:10;93787.19;;;11.47;55.45
7335;BME280;3708;42.632;23.378;2023-03-26T01:33:43;93793.47;;;11.59;54.69
7335;BME280;3708;42.632;23.378;2023-03-26T01:36:16;93810.25;;;11.14;56.27
7335;BME280;3708;42.632;23.378;2023-03-26T01:38:54;93808.41;;;11.42;56.20
7335;BME280;3708;42.632;23.378;2023-03-26T01:41:31;93808.50;;;11.18;56.52
7335;BME280;3708;42.632;23.378;2023-03-26T01:44:03;93808.28;;;11.79;55.60
7335;BME280;3708;42.632;23.378;2023-03-26T01:46:33;93820.28;;;11.80;55.07
7335;BME280;3708;42.632;23.378;2023-03-26T01:51:47;93812.25;;;11.61;56.60
7335;BME280;3708;42.632;23.378;2023-03-26T01:54:15;93822.47;;;11.50;56.87
7335;BME280;3708;42.632;23.378;2023-03-26T01:56:55;93820.56;;;11.35;57.22
7335;BME280;3708;42.632;23.378;2023-03-26T01:59:41;93826.19;;;11.09;58.12
7335;BME280;3708;42.632;23.378;2023-03-26T02:02:18;93820.59;;;11.90;56.10
7335;BME280;3708;42.632;23.378;2023-03-26T02:04:51;93817.50;;;11.33;57.78
7335;BME280;3708;42.632;23.378;2023-03-26T02:07:22;93815.91;;;11.84;56.80
7335;BME280;3708;42.632;23.378;2023-03-26T02:09:56;93814.63;;;11.78;56.91
7335;BME280;3708;42.632;23.378;2023-03-26T02:12:27;93832.13;;;11.74;56.58
7335;BME280;3708;42.632;23.378;2023-03-26T02:14:54;93824.75;;;11.51;57.01
7335;BME280;3708;42.632;23.378;2023-03-26T02:17:21;93825.22;;;11.54;57.25
7335;BME280;3708;42.632;23.378;2023-03-26T02:19:49;93821.88;;;11.29;58.00
7335;BME280;3708;42.632;23.378;2023-03-26T02:22:18;93818.03;;;11.94;56.47
7335;BME280;3708;42.632;23.378;2023-03-26T02:24:47;93817.94;;;11.63;57.32
7335;BME280;3708;42.632;23.378;2023-03-26T02:27:14;93807.88;;;11.65;56.26
7335;BME280;3708;42.632;23.378;2023-03-26T02:29:44;93802.47;;;11.30;57.92
7335;BME280;3708;42.632;23.378;2023-03-26T02:32:12;93810.88;;;11.23;58.28
7335;BME280;3708;42.632;23.378;2023-03-26T02:34:39;93811.88;;;11.07;58.18
7335;BME280;3708;42.632;23.378;2023-03-26T02:37:06;93809.41;;;10.98;59.33
7335;BME280;3708;42.632;23.378;2023-03-26T02:39:33;93817.16;;;10.95;58.79
7335;BME280;3708;42.632;23.378;2023-03-26T02:42:00;93813.50;;;10.71;59.06
7335;BME280;3708;42.632;23.378;2023-03-26T02:44:27;93813.06;;;10.69;59.07
7335;BME280;3708;42.632;23.378;2023-03-26T02:46:56;93818.91;;;11.03;58.15
7335;BME280;3708;42.632;23.378;2023-03-26T02:49:23;93822.09;;;10.84;58.72
7335;BME280;3708;42.632;23.378;2023-03-26T02:51:50;93816.75;;;10.93;58.50
7335;BME280;3708;42.632;23.378;2023-03-26T02:54:21;93817.72;;;10.88;58.72
7335;BME280;3708;42.632;23.378;2023-03-26T02:56:48;93830.50;;;10.65;59.67
7335;BME280;3708;42.632;23.378;2023-03-26T02:59:16;93837.59;;;10.53;60.37
7335;BME280;3708;42.632;23.378;2023-03-26T03:01:44;93819.94;;;10.62;60.54
7335;BME280;3708;42.632;23.378;2023-03-26T03:04:16;93849.63;;;10.54;60.32
7335;BME280;3708;42.632;23.378;2023-03-26T03:06:43;93847.88;;;10.58;60.36
7335;BME280;3708;42.632;23.378;2023-03-26T03:09:13;93852.44;;;10.49;60.52
7335;BME280;3708;42.632;23.378;2023-03-26T03:11:40;93868.34;;;10.32;60.38
7335;BME280;3708;42.632;23.378;2023-03-26T03:14:08;93850.25;;;10.39;60.66
7335;BME280;3708;42.632;23.378;2023-03-26T03:16:38;93857.78;;;10.52;59.92
7335;BME280;3708;42.632;23.378;2023-03-26T03:19:05;93872.00;;;10.76;59.56
7335;BME280;3708;42.632;23.378;2023-03-26T03:21:34;93867.72;;;10.47;60.19
7335;BME280;3708;42.632;23.378;2023-03-26T03:24:01;93853.91;;;10.14;61.08
7335;BME280;3708;42.632;23.378;2023-03-26T03:26:29;93848.31;;;10.48;60.46
7335;BME280;3708;42.632;23.378;2023-03-26T03:28:56;93850.03;;;9.99;61.92
7335;BME280;3708;42.632;23.378;2023-03-26T03:31:24;93866.50;;;9.99;62.04
7335;BME280;3708;42.632;23.378;2023-03-26T03:33:51;93872.03;;;9.86;62.32
7335;BME280;3708;42.632;23.378;2023-03-26T03:36:21;93854.13;;;10.09;61.43
7335;BME280;3708;42.632;23.378;2023-03-26T03:38:50;93864.03;;;9.50;63.34
7335;BME280;3708;42.632;23.378;2023-03-26T03:41:17;93873.84;;;9.73;62.84
7335;BME280;3708;42.632;23.378;2023-03-26T03:43:44;93867.38;;;10.04;62.28
7335;BME280;3708;42.632;23.378;2023-03-26T03:46:11;93873.34;;;10.13;61.90
7335;BME280;3708;42.632;23.378;2023-03-26T03:48:38;93859.06;;;9.36;64.18
7335;BME280;3708;42.632;23.378;2023-03-26T03:51:08;93862.09;;;9.79;62.61
7335;BME280;3708;42.632;23.378;2023-03-26T03:53:35;93858.06;;;9.82;62.40
7335;BME280;3708;42.632;23.378;2023-03-26T03:56:07;93863.81;;;9.75;62.88
7335;BME280;3708;42.632;23.378;2023-03-26T03:58:35;93875.34;;;10.07;61.80
7335;BME280;3708;42.632;23.378;2023-03-26T04:01:02;93863.38;;;10.06;62.29
7335;BME280;3708;42.632;23.378;2023-03-26T04:03:29;93878.38;;;10.18;61.86
7335;BME280;3708;42.632;23.378;2023-03-26T04:06:03;93863.78;;;9.96;61.81
7335;BME280;3708;42.632;23.378;2023-03-26T04:08:32;93868.59;;;9.94;62.36
7335;BME280;3708;42.632;23.378;2023-03-26T04:10:59;93852.63;;;10.20;61.65
7335;BME280;3708;42.632;23.378;2023-03-26T04:13:30;93872.91;;;10.23;61.80
7335;BME280;3708;42.632;23.378;2023-03-26T04:15:57;93890.63;;;9.72;62.71
7335;BME280;3708;42.632;23.378;2023-03-26T04:18:27;93883.16;;;9.62;63.42
7335;BME280;3708;42.632;23.378;2023-03-26T04:20:55;93894.09;;;10.30;60.99
7335;BME280;3708;42.632;23.378;2023-03-26T04:23:39;93900.72;;;9.94;62.23
7335;BME280;3708;42.632;23.378;2023-03-26T04:26:11;93919.75;;;10.36;61.39
7335;BME280;3708;42.632;23.378;2023-03-26T04:28:57;93927.66;;;11.09;59.41
7335;BME280;3708;42.632;23.378;2023-03-26T04:31:32;93927.88;;;10.92;59.26
7335;BME280;3708;42.632;23.378;2023-03-26T04:34:06;93927.75;;;10.19;61.12
7335;BME280;3708;42.632;23.378;2023-03-26T04:36:38;93942.19;;;10.05;61.24
7335;BME280;3708;42.632;23.378;2023-03-26T04:39:09;93945.81;;;10.45;60.96
7335;BME280;3708;42.632;23.378;2023-03-26T04:41:37;93944.81;;;10.37;60.76
7335;BME280;3708;42.632;23.378;2023-03-26T04:44:06;93950.00;;;10.13;61.27
7335;BME280;3708;42.632;23.378;2023-03-26T04:46:33;93962.25;;;10.01;61.26
7335;BME280;3708;42.632;23.378;2023-03-26T04:49:00;93959.81;;;9.95;62.49
7335;BME280;3708;42.632;23.378;2023-03-26T04:51:33;93955.34;;;9.75;62.63
7335;BME280;3708;42.632;23.378;2023-03-26T04:54:03;93958.28;;;9.94;62.00
7335;BME280;3708;42.632;23.378;2023-03-26T04:56:38;93953.06;;;10.15;61.29
7335;BME280;3708;42.632;23.378;2023-03-26T04:59:10;93952.31;;;9.53;63.00
7335;BME280;3708;42.632;23.378;2023-03-26T05:01:39;93955.34;;;9.75;61.63
7335;BME280;3708;42.632;23.378;2023-03-26T05:04:10;93955.16;;;9.60;61.58
7335;BME280;3708;42.632;23.378;2023-03-26T05:06:37;93958.16;;;9.50;61.74
7335;BME280;3708;42.632;23.378;2023-03-26T05:09:04;93948.22;;;9.84;61.19
7335;BME280;3708;42.632;23.378;2023-03-26T05:11:31;93967.59;;;9.83;60.42
7335;BME280;3708;42.632;23.378;2023-03-26T05:13:58;93972.88;;;9.75;60.09
7335;BME280;3708;42.632;23.378;2023-03-26T05:16:34;93978.97;;;9.87;59.79
7335;BME280;3708;42.632;23.378;2023-03-26T05:19:04;93980.00;;;10.16;58.51
7335;BME280;3708;42.632;23.378;2023-03-26T05:21:32;93970.47;;;9.90;59.75
7335;BME280;3708;42.632;23.378;2023-03-26T05:24:00;93987.53;;;10.17;58.12
7335;BME280;3708;42.632;23.378;2023-03-26T05:26:30;93979.00;;;10.20;57.84
7335;BME280;3708;42.632;23.378;2023-03-26T05:28:57;93986.63;;;10.46;57.63
7335;BME280;3708;42.632;23.378;2023-03-26T05:31:24;93995.81;;;10.19;57.86
7335;BME280;3708;42.632;23.378;2023-03-26T05:33:55;93995.44;;;10.86;56.56
7335;BME280;3708;42.632;23.378;2023-03-26T05:36:22;93991.53;;;10.92;56.79
7335;BME280;3708;42.632;23.378;2023-03-26T05:38:49;93989.78;;;10.96;56.74
7335;BME280;3708;42.632;23.378;2023-03-26T05:41:17;93987.78;;;10.24;58.47
7335;BME280;3708;42.632;23.378;2023-03-26T05:43:44;93990.38;;;10.24;58.82
7335;BME280;3708;42.632;23.378;2023-03-26T05:46:12;93996.66;;;10.11;59.02
7335;BME280;3708;42.632;23.378;2023-03-26T05:49:10;93993.69;;;10.78;57.49
7335;BME280;3708;42.632;23.378;2023-03-26T05:51:40;93992.00;;;10.61;57.60
7335;BME280;3708;42.632;23.378;2023-03-26T05:54:07;93993.75;;;11.38;55.71
7335;BME280;3708;42.632;23.378;2023-03-26T05:56:36;94004.03;;;10.62;57.73
7335;BME280;3708;42.632;23.378;2023-03-26T05:59:03;93999.66;;;10.66;57.46
7335;BME280;3708;42.632;23.378;2023-03-26T06:01:32;93997.44;;;11.01;56.81
7335;BME280;3708;42.632;23.378;2023-03-26T06:06:58;93993.91;;;10.73;56.80
7335;BME280;3708;42.632;23.378;2023-03-26T06:09:32;93981.56;;;10.73;57.38
7335;BME280;3708;42.632;23.378;2023-03-26T06:12:02;93991.66;;;11.44;55.22
7335;BME280;3708;42.632;23.378;2023-03-26T06:17:47;93988.03;;;11.48;54.35
7335;BME280;3708;42.632;23.378;2023-03-26T06:20:30;93983.56;;;11.01;55.36
7335;BME280;3708;42.632;23.378;2023-03-26T06:23:12;93979.97;;;11.05;55.06
7335;BME280;3708;42.632;23.378;2023-03-26T06:25:56;93984.97;;;10.86;54.96
7335;BME280;3708;42.632;23.378;2023-03-26T06:28:53;93993.38;;;11.28;53.83
7335;BME280;3708;42.632;23.378;2023-03-26T06:31:24;93997.66;;;11.44;53.21
7335;BME280;3708;42.632;23.378;2023-03-26T06:34:34;94008.47;;;11.07;54.56
7335;BME280;3708;42.632;23.378;2023-03-26T06:39:43;93982.13;;;10.79;53.99
7335;BME280;3708;42.632;23.378;2023-03-26T06:42:10;93990.00;;;11.39;53.25
7335;BME280;3708;42.632;23.378;2023-03-26T06:44:37;93994.81;;;11.13;53.63
7335;BME280;3708;42.632;23.378;2023-03-26T06:47:04;94022.56;;;11.14;52.85
7335;BME280;3708;42.632;23.378;2023-03-26T06:49:31;93988.69;;;11.45;52.37
7335;BME280;3708;42.632;23.378;2023-03-26T06:51:58;94006.81;;;10.78;53.76
7335;BME280;3708;42.632;23.378;2023-03-26T06:54:27;94008.34;;;11.15;53.35
7335;BME280;3708;42.632;23.378;2023-03-26T06:56:56;94008.72;;;12.02;51.49
7335;BME280;3708;42.632;23.378;2023-03-26T06:59:23;94021.81;;;11.62;51.53
7335;BME280;3708;42.632;23.378;2023-03-26T07:01:50;94025.16;;;11.87;50.22
7335;BME280;3708;42.632;23.378;2023-03-26T07:04:17;94023.22;;;11.84;49.73
7335;BME280;3708;42.632;23.378;2023-03-26T07:06:43;94030.06;;;12.00;49.29
7335;BME280;3708;42.632;23.378;2023-03-26T07:09:10;94023.44;;;11.55;49.69
7335;BME280;3708;42.632;23.378;2023-03-26T07:11:37;94028.91;;;11.37;50.67
7335;BME280;3708;42.632;23.378;2023-03-26T07:14:05;94033.41;;;11.49;50.46
7335;BME280;3708;42.632;23.378;2023-03-26T07:16:32;94014.13;;;10.97;51.72
7335;BME280;3708;42.632;23.378;2023-03-26T07:18:59;94023.44;;;11.30;51.86
7335;BME280;3708;42.632;23.378;2023-03-26T07:21:26;94022.03;;;11.57;51.30
7335;BME280;3708;42.632;23.378;2023-03-26T07:23:54;94023.66;;;11.62;50.17
7335;BME280;3708;42.632;23.378;2023-03-26T07:26:25;94019.69;;;12.59;48.13
7335;BME280;3708;42.632;23.378;2023-03-26T07:29:02;94016.75;;;12.49;47.78
7335;BME280;3708;42.632;23.378;2023-03-26T07:31:37;94019.06;;;11.59;50.07
7335;BME280;3708;42.632;23.378;2023-03-26T07:34:12;94011.34;;;12.57;47.48
7335;BME280;3708;42.632;23.378;2023-03-26T07:36:46;93999.13;;;12.92;47.08
7335;BME280;3708;42.632;23.378;2023-03-26T07:39:26;94007.38;;;12.48;48.03
7335;BME280;3708;42.632;23.378;2023-03-26T07:42:03;93998.38;;;12.49;48.25
7335;BME280;3708;42.632;23.378;2023-03-26T07:44:41;94004.91;;;12.39;48.77
7335;BME280;3708;42.632;23.378;2023-03-26T07:47:20;94004.31;;;12.18;48.73
7335;BME280;3708;42.632;23.378;2023-03-26T07:49:52;94007.16;;;12.68;47.48
7335;BME280;3708;42.632;23.378;2023-03-26T07:52:19;94003.13;;;13.02;47.03
7335;BME280;3708;42.632;23.378;2023-03-26T07:54:46;94005.94;;;12.93;47.06
7335;BME280;3708;42.632;23.378;2023-03-26T07:57:17;93999.19;;;12.96;46.04
7335;BME280;3708;42.632;23.378;2023-03-26T07:59:50;93996.03;;;13.34;45.25
7335;BME280;3708;42.632;23.378;2023-03-26T08:02:38;94006.94;;;13.51;45.01
7335;BME280;3708;42.632;23.378;2023-03-26T08:05:23;94007.97;;;13.31;45.44
7335;BME280;3708;42.632;23.378;2023-03-26T08:08:01;93998.63;;;13.02;45.69
7335;BME280;3708;42.632;23.378;2023-03-26T08:10:34;93992.16;;;13.62;43.83
7335;BME280;3708;42.632;23.378;2023-03-26T08:13:14;93998.94;;;13.63;42.62
7335;BME280;3708;42.632;23.378;2023-03-26T08:15:48;93997.53;;;14.39;42.42
7335;BME280;3708;42.632;23.378;2023-03-26T08:18:28;93996.72;;;14.19;42.46
7335;BME280;3708;42.632;23.378;2023-03-26T08:20:59;93992.34;;;14.42;41.85
7335;BME280;3708;42.632;23.378;2023-03-26T08:23:34;93989.81;;;14.49;41.17
7335;BME280;3708;42.632;23.378;2023-03-26T08:26:08;93991.75;;;14.52;40.88
7335;BME280;3708;42.632;23.378;2023-03-26T08:28:49;93994.94;;;14.62;40.32
7335;BME280;3708;42.632;23.378;2023-03-26T08:31:30;93990.22;;;14.13;37.70
7335;BME280;3708;42.632;23.378;2023-03-26T08:34:00;93997.50;;;14.20;37.25
7335;BME280;3708;42.632;23.378;2023-03-26T08:36:27;93995.25;;;14.37;37.73
7335;BME280;3708;42.632;23.378;2023-03-26T08:38:53;94006.72;;;14.10;37.94
7335;BME280;3708;42.632;23.378;2023-03-26T08:41:43;93999.66;;;13.95;39.04
7335;BME280;3708;42.632;23.378;2023-03-26T08:47:51;93980.63;;;14.40;38.66
7335;BME280;3708;42.632;23.378;2023-03-26T08:51:05;93997.28;;;14.09;38.82
7335;BME280;3708;42.632;23.378;2023-03-26T08:56:58;93988.00;;;14.53;37.58
7335;BME280;3708;42.632;23.378;2023-03-26T08:59:54;93985.50;;;14.61;37.49
7335;BME280;3708;42.632;23.378;2023-03-26T09:02:54;93984.06;;;14.44;36.88
7335;BME280;3708;42.632;23.378;2023-03-26T09:17:53;93998.50;;;14.92;34.44
7335;BME280;3708;42.632;23.378;2023-03-26T09:20:46;93984.00;;;15.27;33.88
7335;BME280;3708;42.632;23.378;2023-03-26T09:23:36;93983.78;;;15.13;34.22
7335;BME280;3708;42.632;23.378;2023-03-26T09:26:22;93982.56;;;14.85;35.52
7335;BME280;3708;42.632;23.378;2023-03-26T09:35:11;93980.34;;;15.09;33.67
7335;BME280;3708;42.632;23.378;2023-03-26T09:37:49;93973.06;;;14.80;34.98
7335;BME280;3708;42.632;23.378;2023-03-26T09:40:24;93987.44;;;14.64;35.43
7335;BME280;3708;42.632;23.378;2023-03-26T09:43:10;93974.81;;;14.95;33.82
7335;BME280;3708;42.632;23.378;2023-03-26T09:45:49;93969.81;;;14.68;34.02
7335;BME280;3708;42.632;23.378;2023-03-26T09:51:37;93968.31;;;14.89;35.21
7335;BME280;3708;42.632;23.378;2023-03-26T09:54:16;93967.38;;;15.01;35.53
7335;BME280;3708;42.632;23.378;2023-03-26T09:56:51;93973.81;;;15.26;35.30
7335;BME280;3708;42.632;23.378;2023-03-26T10:02:22;93972.59;;;14.75;35.02
7335;BME280;3708;42.632;23.378;2023-03-26T10:05:08;93968.31;;;14.47;36.82
7335;BME280;3708;42.632;23.378;2023-03-26T10:07:52;93953.59;;;14.88;35.74
7335;BME280;3708;42.632;23.378;2023-03-26T10:10:30;93948.19;;;15.04;35.90
7335;BME280;3708;42.632;23.378;2023-03-26T10:13:07;93949.34;;;15.81;34.43
7335;BME280;3708;42.632;23.378;2023-03-26T10:15:53;93941.63;;;15.17;35.21
7335;BME280;3708;42.632;23.378;2023-03-26T10:18:30;93928.06;;;15.67;34.51
7335;BME280;3708;42.632;23.378;2023-03-26T10:21:04;93926.25;;;15.45;35.06
7335;BME280;3708;42.632;23.378;2023-03-26T10:23:58;93937.16;;;15.99;34.17
7335;BME280;3708;42.632;23.378;2023-03-26T10:26:38;93925.53;;;15.48;33.42
7335;BME280;3708;42.632;23.378;2023-03-26T10:29:20;93919.41;;;16.00;32.10
7335;BME280;3708;42.632;23.378;2023-03-26T10:31:55;93916.97;;;15.84;31.87
7335;BME280;3708;42.632;23.378;2023-03-26T10:34:43;93902.41;;;15.68;32.73
7335;BME280;3708;42.632;23.378;2023-03-26T10:37:18;93896.50;;;16.48;30.65
7335;BME280;3708;42.632;23.378;2023-03-26T10:40:01;93901.97;;;15.62;30.94
7335;BME280;3708;42.632;23.378;2023-03-26T10:42:54;93902.88;;;15.47;31.66
7335;BME280;3708;42.632;23.378;2023-03-26T10:45:43;93893.69;;;15.64;31.30
7335;BME280;3708;42.632;23.378;2023-03-26T10:48:32;93892.72;;;15.23;31.99
7335;BME280;3708;42.632;23.378;2023-03-26T10:51:26;93881.16;;;15.57;31.54
7335;BME280;3708;42.632;23.378;2023-03-26T10:54:00;93887.78;;;16.07;30.26
7335;BME280;3708;42.632;23.378;2023-03-26T10:56:33;93876.75;;;16.35;29.58
7335;BME280;3708;42.632;23.378;2023-03-26T10:59:05;93883.28;;;16.11;31.20
7335;BME280;3708;42.632;23.378;2023-03-26T11:01:40;93881.06;;;15.50;30.70
7335;BME280;3708;42.632;23.378;2023-03-26T11:04:19;93871.97;;;16.11;29.91
7335;BME280;3708;42.632;23.378;2023-03-26T11:06:53;93872.56;;;15.93;29.77
7335;BME280;3708;42.632;23.378;2023-03-26T11:09:31;93880.47;;;15.93;29.38
7335;BME280;3708;42.632;23.378;2023-03-26T11:12:04;93871.03;;;16.66;29.08
7335;BME280;3708;42.632;23.378;2023-03-26T11:14:42;93859.88;;;16.10;28.93
7335;BME280;3708;42.632;23.378;2023-03-26T11:17:21;93860.59;;;16.84;27.90
7335;BME280;3708;42.632;23.378;2023-03-26T11:19:58;93874.63;;;17.45;27.52
7335;BME280;3708;42.632;23.378;2023-03-26T11:22:33;93850.22;;;17.15;26.70
7335;BME280;3708;42.632;23.378;2023-03-26T11:25:26;93864.09;;;16.98;26.52
7335;BME280;3708;42.632;23.378;2023-03-26T11:28:04;93847.31;;;17.34;25.43
7335;BME280;3708;42.632;23.378;2023-03-26T11:30:39;93847.50;;;17.63;25.50
7335;BME280;3708;42.632;23.378;2023-03-26T11:33:11;93839.84;;;16.86;26.52
7335;BME280;3708;42.632;23.378;2023-03-26T11:35:43;93860.41;;;17.71;25.43
7335;BME280;3708;42.632;23.378;2023-03-26T11:38:17;93867.41;;;16.85;25.94
7335;BME280;3708;42.632;23.378;2023-03-26T11:40:46;93846.00;;;17.62;25.39
7335;BME280;3708;42.632;23.378;2023-03-26T11:43:18;93849.56;;;18.08;24.89
7335;BME280;3708;42.632;23.378;2023-03-26T11:45:47;93828.00;;;17.27;26.10
7335;BME280;3708;42.632;23.378;2023-03-26T11:48:22;93813.34;;;17.40;25.55
7335;BME280;3708;42.632;23.378;2023-03-26T11:50:54;93817.81;;;17.32;25.73
7335;BME280;3708;42.632;23.378;2023-03-26T11:53:25;93829.41;;;17.10;25.50
7335;BME280;3708;42.632;23.378;2023-03-26T11:55:57;93809.81;;;17.25;25.64
7335;BME280;3708;42.632;23.378;2023-03-26T11:58:28;93793.13;;;17.07;25.62
7335;BME280;3708;42.632;23.378;2023-03-26T12:01:03;93794.47;;;17.48;25.34
7335;BME280;3708;42.632;23.378;2023-03-26T12:03:32;93799.81;;;17.63;25.01
7335;BME280;3708;42.632;23.378;2023-03-26T12:05:59;93781.72;;;17.79;25.09
7335;BME280;3708;42.632;23.378;2023-03-26T12:08:32;93782.53;;;18.04;25.16
7335;BME280;3708;42.632;23.378;2023-03-26T12:11:04;93761.72;;;18.87;24.22
7335;BME280;3708;42.632;23.378;2023-03-26T12:13:37;93764.03;;;18.88;23.62
7335;BME280;3708;42.632;23.378;2023-03-26T12:16:13;93777.28;;;18.99;23.64
7335;BME280;3708;42.632;23.378;2023-03-26T12:18:43;93762.88;;;18.33;24.31
7335;BME280;3708;42.632;23.378;2023-03-26T12:21:12;93763.25;;;18.17;24.80
7335;BME280;3708;42.632;23.378;2023-03-26T12:23:49;93755.63;;;17.88;25.40
7335;BME280;3708;42.632;23.378;2023-03-26T12:26:19;93742.44;;;18.62;24.52
7335;BME280;3708;42.632;23.378;2023-03-26T12:28:48;93744.00;;;19.81;22.51
7335;BME280;3708;42.632;23.378;2023-03-26T12:31:17;93731.81;;;18.12;23.56
7335;BME280;3708;42.632;23.378;2023-03-26T12:34:02;93733.75;;;18.54;23.55
7335;BME280;3708;42.632;23.378;2023-03-26T12:36:32;93723.38;;;19.20;22.94
7335;BME280;3708;42.632;23.378;2023-03-26T12:41:54;93712.25;;;20.22;22.47
7335;BME280;3708;42.632;23.378;2023-03-26T12:44:27;93709.28;;;20.06;22.40
7335;BME280;3708;42.632;23.378;2023-03-26T12:47:09;93713.06;;;19.39;22.97
7335;BME280;3708;42.632;23.378;2023-03-26T12:49:40;93713.72;;;19.64;21.87
7335;BME280;3708;42.632;23.378;2023-03-26T12:52:23;93732.97;;;18.82;21.86
7335;BME280;3708;42.632;23.378;2023-03-26T12:54:56;93710.09;;;19.20;21.42
7335;BME280;3708;42.632;23.378;2023-03-26T12:57:28;93696.31;;;19.60;21.12
7335;BME280;3708;42.632;23.378;2023-03-26T13:00:07;93689.19;;;19.43;20.64
7335;BME280;3708;42.632;23.378;2023-03-26T13:05:43;93699.84;;;19.22;20.26
7335;BME280;3708;42.632;23.378;2023-03-26T13:08:24;93691.56;;;19.06;19.98
7335;BME280;3708;42.632;23.378;2023-03-26T13:10:59;93691.66;;;18.77;19.49
7335;BME280;3708;42.632;23.378;2023-03-26T13:13:53;93712.13;;;18.66;19.27
7335;BME280;3708;42.632;23.378;2023-03-26T13:16:26;93689.16;;;19.46;20.28
7335;BME280;3708;42.632;23.378;2023-03-26T13:18:58;93680.41;;;20.08;20.43
7335;BME280;3708;42.632;23.378;2023-03-26T13:21:34;93702.81;;;19.48;20.56
7335;BME280;3708;42.632;23.378;2023-03-26T13:24:13;93692.63;;;19.22;19.10
7335;BME280;3708;42.632;23.378;2023-03-26T13:26:53;93689.16;;;19.46;19.06
7335;BME280;3708;42.632;23.378;2023-03-26T13:29:30;93688.69;;;20.17;18.29
7335;BME280;3708;42.632;23.378;2023-03-26T13:32:06;93685.22;;;19.72;17.16
7335;BME280;3708;42.632;23.378;2023-03-26T13:34:48;93708.97;;;19.21;18.00
7335;BME280;3708;42.632;23.378;2023-03-26T13:37:23;93698.50;;;19.72;17.69
7335;BME280;3708;42.632;23.378;2023-03-26T13:40:00;93682.91;;;19.74;17.98
7335;BME280;3708;42.632;23.378;2023-03-26T13:42:38;93692.47;;;20.19;17.99
7335;BME280;3708;42.632;23.378;2023-03-26T13:45:14;93680.75;;;20.61;18.02
7335;BME280;3708;42.632;23.378;2023-03-26T13:47:48;93677.75;;;20.56;17.99
7335;BME280;3708;42.632;23.378;2023-03-26T13:50:20;93673.91;;;20.16;18.23
7335;BME280;3708;42.632;23.378;2023-03-26T13:52:53;93671.41;;;19.91;18.68
7335;BME280;3708;42.632;23.378;2023-03-26T13:55:24;93681.34;;;19.84;18.60
7335;BME280;3708;42.632;23.378;2023-03-26T13:57:59;93678.97;;;20.47;18.00
7335;BME280;3708;42.632;23.378;2023-03-26T14:00:42;93683.13;;;19.28;18.84
7335;BME280;3708;42.632;23.378;2023-03-26T14:03:19;93679.81;;;19.10;17.95
7335;BME280;3708;42.632;23.378;2023-03-26T14:05:50;93667.81;;;19.64;17.61
7335;BME280;3708;42.632;23.378;2023-03-26T14:08:28;93665.44;;;19.76;17.15
7335;BME280;3708;42.632;23.378;2023-03-26T14:11:10;93681.25;;;19.36;16.51
7335;BME280;3708;42.632;23.378;2023-03-26T14:13:43;93664.28;;;19.01;16.98
7335;BME280;3708;42.632;23.378;2023-03-26T14:16:15;93660.53;;;19.75;17.41
7335;BME280;3708;42.632;23.378;2023-03-26T14:18:47;93651.84;;;19.67;17.61
7335;BME280;3708;42.632;23.378;2023-03-26T14:21:34;93654.53;;;20.60;17.61
7335;BME280;3708;42.632;23.378;2023-03-26T14:24:35;93650.16;;;21.44;16.97
7335;BME280;3708;42.632;23.378;2023-03-26T14:27:32;93653.13;;;20.00;18.34
7335;BME280;3708;42.632;23.378;2023-03-26T14:36:11;93646.91;;;20.17;19.04
7335;BME280;3708;42.632;23.378;2023-03-26T14:39:02;93646.88;;;21.02;18.76
7335;BME280;3708;42.632;23.378;2023-03-26T14:41:40;93650.16;;;20.80;18.83